createdAt,value
2022-10-19T00:01:21.589Z,98285.25
2022-10-19T00:03:51.561Z,98287.00
2022-10-19T00:06:25.693Z,98288.72
2022-10-19T00:08:56.862Z,98293.94
2022-10-19T00:11:25.783Z,98290.50
2022-10-19T00:13:55.431Z,98282.72
2022-10-19T00:16:24.461Z,98282.69
2022-10-19T00:18:52.790Z,98274.06
2022-10-19T00:21:21.444Z,98273.19
2022-10-19T00:23:50.277Z,98277.53
2022-10-19T00:26:20.417Z,98266.28
2022-10-19T00:28:50.286Z,98269.72
2022-10-19T00:31:19.511Z,98273.22
2022-10-19T00:33:48.402Z,98267.13
2022-10-19T00:36:18.471Z,98261.94
2022-10-19T00:38:47.098Z,98266.25
2022-10-19T00:41:15.993Z,98259.34
2022-10-19T00:43:59.518Z,98256.75
2022-10-19T00:46:29.547Z,98255.00
2022-10-19T00:49:01.744Z,98244.66
2022-10-19T00:51:32.770Z,98236.88
2022-10-19T00:54:02.852Z,98246.41
2022-10-19T00:56:31.367Z,98239.47
2022-10-19T00:59:01.216Z,98243.78
2022-10-19T01:01:30.553Z,98237.72
2022-10-19T01:03:58.922Z,98239.47
2022-10-19T01:06:28.513Z,98231.66
2022-10-19T01:08:57.090Z,98242.94
2022-10-19T01:11:32.734Z,98247.25
2022-10-19T01:14:14.655Z,98235.16
2022-10-19T01:16:50.755Z,98242.94
2022-10-19T01:19:45.412Z,98244.66
2022-10-19T01:22:22.749Z,98244.66
2022-10-19T01:24:58.771Z,98241.16
2022-10-19T01:27:39.253Z,98245.50
2022-10-19T01:30:12.571Z,98252.38
2022-10-19T01:32:55.241Z,98241.13
2022-10-19T01:35:28.775Z,98240.19
2022-10-19T01:38:07.291Z,98241.06
2022-10-19T01:40:41.906Z,98232.44
2022-10-19T01:43:14.968Z,98241.03
2022-10-19T01:45:50.852Z,98235.00
2022-10-19T01:48:22.663Z,98242.78
2022-10-19T01:50:53.765Z,98247.06
2022-10-19T01:53:22.625Z,98243.56
2022-10-19T01:55:53.392Z,98242.69
2022-10-19T01:58:26.350Z,98234.03
2022-10-19T02:00:58.552Z,98241.78
2022-10-19T02:03:27.411Z,98232.28
2022-10-19T02:05:56.369Z,98233.13
2022-10-19T02:08:29.162Z,98233.97
2022-10-19T02:11:00.109Z,98240.00
2022-10-19T02:13:29.603Z,98237.44
2022-10-19T02:16:02.103Z,98242.72
2022-10-19T02:18:33.535Z,98232.38
2022-10-19T02:21:02.666Z,98229.69
2022-10-19T02:23:31.329Z,98224.47
2022-10-19T02:25:59.950Z,98229.63
2022-10-19T02:28:29.920Z,98232.19
2022-10-19T02:31:00.591Z,98227.00
2022-10-19T02:33:30.576Z,98224.38
2022-10-19T02:35:59.256Z,98232.09
2022-10-19T02:38:28.041Z,98227.81
2022-10-19T02:41:02.162Z,98227.78
2022-10-19T02:43:31.211Z,98226.91
2022-10-19T02:46:03.125Z,98219.09
2022-10-19T02:48:33.514Z,98222.56
2022-10-19T02:51:01.876Z,98225.16
2022-10-19T02:53:30.319Z,98225.22
2022-10-19T02:55:58.618Z,98230.38
2022-10-19T02:58:27.379Z,98230.53
2022-10-19T03:00:56.439Z,98228.84
2022-10-19T03:03:26.292Z,98223.59
2022-10-19T03:05:54.557Z,98224.44
2022-10-19T03:08:22.812Z,98224.44
2022-10-19T03:10:51.352Z,98224.38
2022-10-19T03:13:19.758Z,98222.72
2022-10-19T03:15:48.180Z,98206.22
2022-10-19T03:18:16.422Z,98212.19
2022-10-19T03:20:46.252Z,98213.00
2022-10-19T03:23:14.555Z,98213.81
2022-10-19T03:25:42.936Z,98225.03
2022-10-19T03:28:11.367Z,98220.66
2022-10-19T03:30:39.823Z,98225.06
2022-10-19T03:33:08.208Z,98222.50
2022-10-19T03:35:36.603Z,98217.28
2022-10-19T03:38:06.296Z,98213.84
2022-10-19T03:40:34.704Z,98217.34
2022-10-19T03:43:02.944Z,98215.66
2022-10-19T03:45:31.586Z,98225.22
2022-10-19T03:47:59.869Z,98231.28
2022-10-19T03:50:29.139Z,98222.63
2022-10-19T03:52:57.495Z,98224.34
2022-10-19T03:55:27.557Z,98230.34
2022-10-19T03:57:55.890Z,98235.53
2022-10-19T04:00:24.174Z,98242.47
2022-10-19T04:02:52.490Z,98240.75
2022-10-19T04:05:20.847Z,98252.88
2022-10-19T04:07:49.197Z,98257.19
2022-10-19T04:10:17.653Z,98257.22
2022-10-19T04:12:51.598Z,98255.59
2022-10-19T04:15:21.959Z,98249.66
2022-10-19T04:17:50.239Z,98245.34
2022-10-19T04:20:18.745Z,98246.25
2022-10-19T04:22:47.061Z,98249.69
2022-10-19T04:25:15.427Z,98256.59
2022-10-19T04:27:43.762Z,98258.31
2022-10-19T04:30:15.765Z,98253.16
2022-10-19T04:32:44.034Z,98251.47
2022-10-19T04:35:12.415Z,98263.53
2022-10-19T04:37:40.969Z,98273.03
2022-10-19T04:40:14.883Z,98277.34
2022-10-19T04:42:44.144Z,98270.53
2022-10-19T04:45:13.890Z,98262.78
2022-10-19T04:47:42.237Z,98256.75
2022-10-19T04:50:11.372Z,98250.72
2022-10-19T04:52:39.797Z,98252.47
2022-10-19T04:55:08.703Z,98242.91
2022-10-19T04:57:37.218Z,98242.03
2022-10-19T05:00:06.756Z,98252.38
2022-10-19T05:02:36.588Z,98248.06
2022-10-19T05:05:05.241Z,98256.69
2022-10-19T05:07:33.813Z,98267.06
2022-10-19T05:10:02.386Z,98273.13
2022-10-19T05:12:30.717Z,98263.66
2022-10-19T05:14:59.140Z,98256.75
2022-10-19T05:17:31.077Z,98261.94
2022-10-19T05:20:01.153Z,98258.50
2022-10-19T05:22:29.513Z,98262.78
2022-10-19T05:24:58.254Z,98261.94
2022-10-19T05:27:27.281Z,98259.34
2022-10-19T05:29:55.937Z,98269.72
2022-10-19T05:32:24.304Z,98268.00
2022-10-19T05:34:53.198Z,98260.19
2022-10-19T05:37:23.413Z,98259.34
2022-10-19T05:39:51.791Z,98261.09
2022-10-19T05:42:20.179Z,98259.38
2022-10-19T05:44:48.627Z,98255.03
2022-10-19T05:47:17.538Z,98264.56
2022-10-19T05:49:45.972Z,98275.78
2022-10-19T05:52:15.290Z,98270.59
2022-10-19T05:54:45.159Z,98271.47
2022-10-19T05:57:13.608Z,98274.94
2022-10-19T05:59:42.117Z,98272.31
2022-10-19T06:02:15.628Z,98278.31
2022-10-19T06:04:44.006Z,98275.75
2022-10-19T06:07:12.460Z,98268.78
2022-10-19T06:09:40.855Z,98264.47
2022-10-19T06:12:10.748Z,98266.16
2022-10-19T06:14:39.235Z,98262.66
2022-10-19T06:17:08.611Z,98265.19
2022-10-19T06:19:38.693Z,98273.88
2022-10-19T06:22:07.127Z,98279.97
2022-10-19T06:24:37.364Z,98287.69
2022-10-19T06:27:06.757Z,98300.59
2022-10-19T06:29:36.969Z,98288.44
2022-10-19T06:32:05.898Z,98283.19
2022-10-19T06:34:34.306Z,98288.22
2022-10-19T06:37:02.718Z,98283.84
2022-10-19T06:39:31.073Z,98285.59
2022-10-19T06:41:59.535Z,98282.16
2022-10-19T06:44:28.081Z,98291.75
2022-10-19T06:46:57.923Z,98301.22
2022-10-19T06:49:26.521Z,98306.41
2022-10-19T06:51:55.148Z,98303.94
2022-10-19T06:54:26.425Z,98302.16
2022-10-19T06:56:55.106Z,98311.56
2022-10-19T06:59:23.465Z,98306.41
2022-10-19T07:01:51.990Z,98306.34
2022-10-19T07:04:21.952Z,98311.53
2022-10-19T07:06:50.394Z,98306.31
2022-10-19T07:09:22.566Z,98315.84
2022-10-19T07:11:51.032Z,98319.25
2022-10-19T07:14:19.866Z,98316.59
2022-10-19T07:16:51.171Z,98325.13
2022-10-19T07:19:23.854Z,98335.53
2022-10-19T07:21:52.942Z,98328.66
2022-10-19T07:24:21.471Z,98329.66
2022-10-19T07:26:50.217Z,98333.22
2022-10-19T07:29:18.688Z,98335.84
2022-10-19T07:31:47.250Z,98337.63
2022-10-19T07:34:16.407Z,98344.47
2022-10-19T07:36:48.283Z,98331.34
2022-10-19T07:39:18.571Z,98331.84
2022-10-19T07:41:47.135Z,98331.56
2022-10-19T07:44:16.270Z,98316.81
2022-10-19T07:46:47.767Z,98315.66
2022-10-19T07:49:19.107Z,98310.28
2022-10-19T07:51:53.985Z,98318.31
2022-10-19T07:54:24.297Z,98304.84
2022-10-19T07:56:52.716Z,98301.16
2022-10-19T07:59:21.145Z,98305.56
2022-10-19T08:01:54.435Z,98308.97
2022-10-19T08:07:13.170Z,98300.47
2022-10-19T08:09:52.774Z,98298.69
2022-10-19T08:12:21.915Z,98299.41
2022-10-19T08:14:50.351Z,98285.34
2022-10-19T08:17:18.814Z,98293.66
2022-10-19T08:19:47.980Z,98287.91
2022-10-19T08:22:18.629Z,98285.59
2022-10-19T08:24:47.027Z,98290.28
2022-10-19T08:27:16.080Z,98288.28
2022-10-19T08:29:45.474Z,98280.22
2022-10-19T08:32:13.975Z,98278.44
2022-10-19T08:34:42.439Z,98268.81
2022-10-19T08:37:26.034Z,98276.28
2022-10-19T08:40:01.335Z,98272.34
2022-10-19T08:42:34.157Z,98262.81
2022-10-19T08:45:34.070Z,98269.03
2022-10-19T08:48:16.393Z,98270.56
2022-10-19T08:50:47.023Z,98271.59
2022-10-19T08:53:17.098Z,98262.84
2022-10-19T08:55:58.649Z,98262.47
2022-10-19T08:58:37.911Z,98263.56
2022-10-19T09:01:09.348Z,98253.16
2022-10-19T09:03:55.059Z,98250.63
2022-10-19T09:06:29.780Z,98254.34
2022-10-19T09:08:59.370Z,98245.28
2022-10-19T09:11:33.258Z,98251.50
2022-10-19T09:14:06.817Z,98244.78
2022-10-19T09:16:36.128Z,98253.28
2022-10-19T09:19:05.084Z,98244.38
2022-10-19T09:21:47.267Z,98259.44
2022-10-19T09:24:30.259Z,98242.28
2022-10-19T09:27:01.596Z,98251.38
2022-10-19T09:29:37.360Z,98259.84
2022-10-19T09:32:07.567Z,98253.41
2022-10-19T09:34:39.177Z,98258.25
2022-10-19T09:37:07.638Z,98266.72
2022-10-19T09:39:37.828Z,98271.34
2022-10-19T09:42:11.958Z,98264.19
2022-10-19T09:44:40.382Z,98257.94
2022-10-19T09:47:29.986Z,98260.09
2022-10-19T09:50:09.761Z,98258.81
2022-10-19T09:52:40.066Z,98252.50
2022-10-19T09:55:16.992Z,98250.66
2022-10-19T09:57:50.130Z,98260.44
2022-10-19T10:00:20.233Z,98256.84
2022-10-19T10:02:52.623Z,98244.38
2022-10-19T10:05:22.112Z,98246.59
2022-10-19T10:07:56.259Z,98244.72
2022-10-19T10:10:28.254Z,98229.06
2022-10-19T10:13:01.452Z,98226.75
2022-10-19T10:15:43.241Z,98223.28
2022-10-19T10:18:14.739Z,98219.25
2022-10-19T10:20:59.482Z,98223.81
2022-10-19T10:23:31.357Z,98218.84
2022-10-19T10:26:01.817Z,98222.91
2022-10-19T10:28:32.169Z,98217.38
2022-10-19T10:31:05.232Z,98214.75
2022-10-19T10:33:47.349Z,98207.38
2022-10-19T10:36:15.958Z,98202.44
2022-10-19T10:38:49.947Z,98204.63
2022-10-19T10:41:24.222Z,98197.22
2022-10-19T10:44:06.963Z,98193.97
2022-10-19T10:46:37.246Z,98192.28
2022-10-19T10:49:07.138Z,98183.34
2022-10-19T10:51:40.183Z,98190.34
2022-10-19T10:54:18.496Z,98175.63
2022-10-19T10:57:04.287Z,98172.19
2022-10-19T10:59:41.757Z,98170.16
2022-10-19T11:02:21.766Z,98166.81
2022-10-19T11:04:53.719Z,98158.75
2022-10-19T11:07:24.919Z,98146.59
2022-10-19T11:09:57.150Z,98151.69
2022-10-19T11:12:35.243Z,98156.84
2022-10-19T11:15:13.186Z,98153.72
2022-10-19T11:17:50.022Z,98152.53
2022-10-19T11:20:18.647Z,98150.53
2022-10-19T11:22:52.266Z,98130.47
2022-10-19T11:25:33.188Z,98139.91
2022-10-19T11:28:09.600Z,98123.22
2022-10-19T11:30:45.330Z,98134.97
2022-10-19T11:33:20.649Z,98132.63
2022-10-19T11:35:53.231Z,98128.16
2022-10-19T11:38:35.417Z,98130.75
2022-10-19T11:41:18.620Z,98118.75
2022-10-19T11:43:57.993Z,98121.03
2022-10-19T11:46:33.967Z,98119.56
2022-10-19T11:49:14.229Z,98121.78
2022-10-19T11:51:49.892Z,98112.22
2022-10-19T11:54:29.805Z,98110.31
2022-10-19T11:57:04.804Z,98110.84
2022-10-19T11:59:45.702Z,98094.03
2022-10-19T12:02:40.387Z,98091.25
2022-10-19T12:05:11.507Z,98088.00
2022-10-19T12:08:04.278Z,98083.00
2022-10-19T12:10:38.155Z,98087.63
2022-10-19T12:13:10.539Z,98081.25
2022-10-19T12:15:41.405Z,98078.09
2022-10-19T12:18:15.843Z,98071.63
2022-10-19T12:20:48.460Z,98070.56
2022-10-19T12:23:24.464Z,98068.56
2022-10-19T12:25:54.101Z,98054.94
2022-10-19T12:28:26.211Z,98060.00
2022-10-19T12:30:55.287Z,98062.13
2022-10-19T12:33:30.931Z,98055.78
2022-10-19T12:36:14.294Z,98060.50
2022-10-19T12:38:59.758Z,98053.00
2022-10-19T12:41:32.230Z,98046.00
2022-10-19T12:44:13.989Z,98036.34
2022-10-19T12:46:49.907Z,98035.78
2022-10-19T12:49:55.163Z,98033.06
2022-10-19T12:52:38.733Z,98050.75
2022-10-19T12:55:24.859Z,98044.53
2022-10-19T12:58:00.817Z,98041.19
2022-10-19T13:00:31.570Z,98035.88
2022-10-19T13:03:03.686Z,98038.66
2022-10-19T13:05:34.583Z,98032.47
2022-10-19T13:08:06.050Z,98025.53
2022-10-19T13:10:36.846Z,98027.91
2022-10-19T13:13:06.172Z,98023.41
2022-10-19T13:15:59.041Z,98022.94
2022-10-19T13:19:07.510Z,98023.97
2022-10-19T13:21:53.335Z,98032.06
2022-10-19T13:24:28.462Z,98020.28
2022-10-19T13:27:26.159Z,98016.22
2022-10-19T13:29:54.873Z,98014.91
2022-10-19T13:32:44.474Z,98011.75
2022-10-19T13:35:34.067Z,98015.19
2022-10-19T13:38:28.278Z,98018.13
2022-10-19T13:41:06.891Z,98012.84
2022-10-19T13:43:36.828Z,98012.16
2022-10-19T13:46:10.987Z,98015.59
2022-10-19T13:49:05.634Z,98021.94
2022-10-19T13:51:41.211Z,98018.38
2022-10-19T13:54:25.287Z,98010.03
2022-10-19T13:57:05.687Z,98008.50
2022-10-19T13:59:47.374Z,98001.13
2022-10-19T14:02:32.265Z,97992.84
2022-10-19T14:05:13.266Z,97998.09
2022-10-19T14:07:48.908Z,97990.66
2022-10-19T14:10:19.450Z,97988.88
2022-10-19T14:12:48.349Z,97984.84
2022-10-19T14:15:27.516Z,97999.09
2022-10-19T14:17:56.185Z,98001.91
2022-10-19T14:20:30.000Z,97993.91
2022-10-19T14:22:58.971Z,97995.53
2022-10-19T14:25:29.572Z,97997.38
2022-10-19T14:28:00.927Z,97994.97
2022-10-19T14:30:33.632Z,97994.31
2022-10-19T14:33:07.621Z,98000.09
2022-10-19T14:35:38.625Z,98003.47
2022-10-19T14:38:08.693Z,97998.09
2022-10-19T14:40:41.750Z,98007.28
2022-10-19T14:43:21.047Z,98002.69
2022-10-19T14:46:05.734Z,98009.97
2022-10-19T14:48:34.810Z,98006.94
2022-10-19T14:51:03.948Z,98009.69
2022-10-19T14:53:37.361Z,98020.22
2022-10-19T14:56:10.175Z,98017.91
2022-10-19T14:58:42.506Z,98017.69
2022-10-19T15:01:12.367Z,98011.38
2022-10-19T15:03:43.727Z,98017.53
2022-10-19T15:06:20.366Z,98014.47
2022-10-19T15:08:51.553Z,98022.16
2022-10-19T15:11:27.867Z,98025.72
2022-10-19T15:14:03.166Z,98024.03
2022-10-19T15:16:43.822Z,98027.81
2022-10-19T15:19:20.960Z,98036.75
2022-10-19T15:21:49.608Z,98044.72
2022-10-19T15:24:25.988Z,98034.69
2022-10-19T15:27:08.823Z,98039.91
2022-10-19T15:29:37.725Z,98042.63
2022-10-19T15:32:16.835Z,98036.75
2022-10-19T15:34:45.671Z,98037.72
2022-10-19T15:37:18.742Z,98038.75
2022-10-19T15:39:47.256Z,98040.47
2022-10-19T15:42:44.338Z,98049.06
2022-10-19T15:45:32.469Z,98048.66
2022-10-19T15:48:24.438Z,98050.97
2022-10-19T15:50:53.094Z,98057.03
2022-10-19T15:53:22.069Z,98057.47
2022-10-19T15:55:52.063Z,98055.13
2022-10-19T15:58:21.769Z,98057.44
2022-10-19T16:00:50.112Z,98052.84
2022-10-19T16:03:18.474Z,98064.13
2022-10-19T16:05:48.924Z,98062.22
2022-10-19T16:08:18.137Z,98064.81
2022-10-19T16:10:46.549Z,98072.41
2022-10-19T16:13:15.191Z,98075.81
2022-10-19T16:15:53.288Z,98079.13
2022-10-19T16:18:29.961Z,98082.81
2022-10-19T16:20:58.585Z,98081.72
2022-10-19T16:23:28.079Z,98089.81
2022-10-19T16:25:56.545Z,98087.00
2022-10-19T16:28:25.742Z,98091.69
2022-10-19T16:30:57.176Z,98089.91
2022-10-19T16:33:26.204Z,98091.69
2022-10-19T16:35:55.093Z,98093.94
2022-10-19T16:38:23.692Z,98103.69
2022-10-19T16:40:52.459Z,98099.31
2022-10-19T16:43:21.356Z,98111.59
2022-10-19T16:45:50.110Z,98112.50
2022-10-19T16:48:23.929Z,98113.47
2022-10-19T16:51:20.832Z,98115.38
2022-10-19T16:53:51.876Z,98124.00
2022-10-19T16:56:22.469Z,98127.53
2022-10-19T16:58:55.762Z,98126.78
2022-10-19T17:01:24.955Z,98138.16
2022-10-19T17:03:55.883Z,98133.91
2022-10-19T17:06:26.089Z,98136.69
2022-10-19T17:11:45.378Z,98151.56
2022-10-19T17:14:15.222Z,98149.72
2022-10-19T17:16:47.530Z,98143.66
2022-10-19T17:19:26.820Z,98148.94
2022-10-19T17:22:02.718Z,98144.50
2022-10-19T17:24:35.342Z,98161.25
2022-10-19T17:27:08.683Z,98153.38
2022-10-19T17:29:41.175Z,98155.97
2022-10-19T17:32:14.842Z,98164.66
2022-10-19T17:34:49.524Z,98171.69
2022-10-19T17:37:19.735Z,98165.66
2022-10-19T17:39:55.987Z,98176.03
2022-10-19T17:42:25.627Z,98173.50
2022-10-19T17:44:56.053Z,98175.22
2022-10-19T17:47:26.769Z,98189.19
2022-10-19T17:49:59.438Z,98184.91
2022-10-19T17:52:30.945Z,98184.91
2022-10-19T17:55:17.744Z,98187.75
2022-10-19T17:57:47.447Z,98192.22
2022-10-19T18:00:17.748Z,98191.47
2022-10-19T18:02:47.810Z,98188.06
2022-10-19T18:05:22.307Z,98190.81
2022-10-19T18:07:55.378Z,98190.91
2022-10-19T18:10:27.583Z,98193.66
2022-10-19T18:12:58.178Z,98197.28
2022-10-19T18:15:27.518Z,98187.78
2022-10-19T18:17:58.786Z,98199.19
2022-10-19T18:20:41.215Z,98201.94
2022-10-19T18:23:11.616Z,98204.56
2022-10-19T18:25:54.007Z,98197.63
2022-10-19T18:28:46.962Z,98209.06
2022-10-19T18:31:20.176Z,98199.66
2022-10-19T18:33:51.192Z,98194.53
2022-10-19T18:36:30.706Z,98202.34
2022-10-19T18:39:04.298Z,98202.38
2022-10-19T18:41:34.437Z,98207.72
2022-10-19T18:44:08.087Z,98207.72
2022-10-19T18:46:40.571Z,98223.38
2022-10-19T18:49:13.190Z,98215.59
2022-10-19T18:51:50.795Z,98208.72
2022-10-19T18:54:24.438Z,98215.72
2022-10-19T18:56:59.931Z,98225.28
2022-10-19T18:59:30.455Z,98225.31
2022-10-19T19:02:05.871Z,98228.81
2022-10-19T19:04:42.229Z,98236.66
2022-10-19T19:07:14.340Z,98238.31
2022-10-19T19:09:46.401Z,98228.75
2022-10-19T19:12:17.552Z,98234.78
2022-10-19T19:14:48.500Z,98239.06
2022-10-19T19:17:19.663Z,98242.47
2022-10-19T19:19:53.902Z,98235.53
2022-10-19T19:22:32.444Z,98228.59
2022-10-19T19:25:06.421Z,98231.13
2022-10-19T19:30:16.123Z,98236.31
2022-10-19T19:32:48.529Z,98234.53
2022-10-19T19:35:20.589Z,98238.84
2022-10-19T19:37:54.605Z,98238.81
2022-10-19T19:40:27.632Z,98240.50
2022-10-19T19:42:58.602Z,98250.06
2022-10-19T19:45:33.781Z,98242.25
2022-10-19T19:48:04.995Z,98246.63
2022-10-19T19:50:40.041Z,98253.47
2022-10-19T19:53:20.944Z,98258.72
2022-10-19T19:55:53.044Z,98262.25
2022-10-19T19:58:23.450Z,98264.84
2022-10-19T20:00:54.850Z,98264.88
2022-10-19T20:03:24.615Z,98269.22
2022-10-19T20:05:57.456Z,98269.25
2022-10-19T20:08:29.521Z,98269.28
2022-10-19T20:11:05.435Z,98279.69
2022-10-19T20:13:42.034Z,98280.56
2022-10-19T20:16:13.685Z,98280.41
2022-10-19T20:18:48.727Z,98284.72
2022-10-19T20:21:24.921Z,98292.63
2022-10-19T20:23:59.658Z,98292.69
2022-10-19T20:26:31.130Z,98295.31
2022-10-19T20:29:01.540Z,98293.59
2022-10-19T20:31:31.755Z,98295.41
2022-10-19T20:34:02.005Z,98297.03
2022-10-19T20:36:31.357Z,98296.31
2022-10-19T20:39:01.714Z,98305.97
2022-10-19T20:41:30.987Z,98303.31
2022-10-19T20:43:59.356Z,98303.31
2022-10-19T20:46:29.538Z,98296.38
2022-10-19T20:48:59.756Z,98300.78
2022-10-19T20:51:32.511Z,98302.47
2022-10-19T20:54:04.708Z,98304.28
2022-10-19T20:56:35.688Z,98299.13
2022-10-19T20:59:06.563Z,98299.97
2022-10-19T21:01:36.732Z,98306.91
2022-10-19T21:04:07.425Z,98316.44
2022-10-19T21:06:41.104Z,98318.16
2022-10-19T21:09:11.557Z,98317.31
2022-10-19T21:11:41.367Z,98316.44
2022-10-19T21:14:12.376Z,98318.16
2022-10-19T21:16:41.153Z,98329.41
2022-10-19T21:19:12.945Z,98315.56
2022-10-19T21:21:42.581Z,98311.25
2022-10-19T21:24:16.234Z,98316.44
2022-10-19T21:26:47.304Z,98318.19
2022-10-19T21:29:17.275Z,98316.44
2022-10-19T21:31:49.387Z,98312.97
2022-10-19T21:34:20.298Z,98319.03
2022-10-19T21:36:48.937Z,98311.25
2022-10-19T21:39:18.896Z,98322.47
2022-10-19T21:41:48.214Z,98333.69
2022-10-19T21:44:17.841Z,98333.69
2022-10-19T21:46:48.431Z,98338.91
2022-10-19T21:49:16.806Z,98338.03
2022-10-19T21:51:46.701Z,98339.75
2022-10-19T21:54:16.682Z,98341.47
2022-10-19T21:56:46.768Z,98339.75
2022-10-19T21:59:15.349Z,98337.16
2022-10-19T22:01:43.802Z,98351.81
2022-10-19T22:04:14.355Z,98355.28
2022-10-19T22:06:43.396Z,98352.66
2022-10-19T22:09:14.368Z,98346.59
2022-10-19T22:11:43.106Z,98352.59
2022-10-19T22:14:14.335Z,98360.38
2022-10-19T22:16:43.360Z,98358.66
2022-10-19T22:19:12.248Z,98361.25
2022-10-19T22:21:43.335Z,98361.28
2022-10-19T22:24:15.111Z,98359.53
2022-10-19T22:26:45.456Z,98364.66
2022-10-19T22:29:15.385Z,98364.63
2022-10-19T22:31:43.935Z,98368.91
2022-10-19T22:34:14.662Z,98370.69
2022-10-19T22:36:43.372Z,98368.09
2022-10-19T22:39:11.785Z,98368.13
2022-10-19T22:41:40.112Z,98367.22
2022-10-19T22:44:08.692Z,98375.00
2022-10-19T22:46:38.756Z,98377.63
2022-10-19T22:49:07.090Z,98376.75
2022-10-19T22:51:35.418Z,98374.06
2022-10-19T22:54:03.854Z,98376.66
2022-10-19T22:56:32.255Z,98380.94
2022-10-19T22:59:00.781Z,98374.03
2022-10-19T23:01:29.714Z,98381.78
2022-10-19T23:03:59.712Z,98381.81
2022-10-19T23:06:28.095Z,98385.22
2022-10-19T23:08:56.499Z,98386.06
2022-10-19T23:11:25.190Z,98388.63
2022-10-19T23:13:53.623Z,98395.50
2022-10-19T23:16:22.141Z,98392.81
2022-10-19T23:18:50.521Z,98392.78
2022-10-19T23:21:20.340Z,98401.38
2022-10-19T23:23:50.148Z,98402.22
2022-10-19T23:26:20.683Z,98401.41
2022-10-19T23:28:50.529Z,98391.03
2022-10-19T23:31:20.095Z,98395.34
2022-10-19T23:33:48.744Z,98397.09
2022-10-19T23:36:21.164Z,98393.63
2022-10-19T23:38:51.180Z,98397.09
2022-10-19T23:41:20.125Z,98392.78
2022-10-19T23:43:48.659Z,98391.97
2022-10-19T23:46:16.925Z,98386.78
2022-10-19T23:48:45.377Z,98385.06
2022-10-19T23:51:15.552Z,98383.31
2022-10-19T23:53:47.434Z,98387.66
2022-10-19T23:56:17.728Z,98395.50
2022-10-19T23:58:48.808Z,98395.38
